Flight Track Log - Related Links

Times and Time Zones

All times are in EDT time to prevent confusion due to time zone crossing. See the GLA154 flight status page for this flight to view local times or setup timezone preferences in your user account.

Time Position Orientation Groundspeed Altitude Reporting Facility
EDT Latitude Longitude Course Direction KTS MPH feet Rate Location/Type
Sun 10:40:42 AM 35.2106 -113.9958 210° Southwest 184 212 8,500  Level Los Angeles Center
Sun 10:41:55 AM 35.1689 -114.0383 220° Southwest 185 213 10,000 1,388 Climbing Los Angeles Center
Sun 10:42:00 AM 34.9329 -114.2767 223° Southwest  Level FlightAware Approximate
Sun 10:42:56 AM 35.1156 -114.0953 221° Southwest 195 224 11,600  Level Los Angeles Center
Sun 10:43:00 AM 34.8806 -114.3360 219° Southwest  Level FlightAware Approximate
Sun 10:43:58 AM 35.0642 -114.1550 224° Southwest 228 262 13,000  Level Los Angeles Center
Sun 10:44:00 AM 34.8255 -114.3913 219° Southwest  Level FlightAware Approximate
Sun 10:44:59 AM 35.0025 -114.2172 220° Southwest 239 275 14,700  Level Los Angeles Center
Sun 10:45:00 AM 34.7703 -114.4464 219° Southwest  Level FlightAware Approximate
Sun 10:46:00 AM 34.9478 -114.2717 219° Southwest 249 287 15,900  Level Los Angeles Center
Sun 10:47:01 AM 34.8967 -114.3303 223° Southwest 252 290 17,000 1,082 Climbing Los Angeles Center
Sun 10:48:02 AM 34.8508 -114.3972 230° Southwest 256 295 18,100 976 Climbing Los Angeles Center
Sun 10:49:04 AM 34.8039 -114.4578 227° Southwest 248 285 19,000 711 Climbing Los Angeles Center
Sun 10:50:17 AM 34.7564 -114.5217 228° Southwest 254 292 19,700 448 Climbing Los Angeles Center
Sun 10:51:18 AM 34.7678 -114.6258 278° West 261 300 20,000 146 Climbing Los Angeles Center
Sun 10:52:20 AM 34.7722 -114.7169 273° West 268 308 20,000  Level Los Angeles Center
Sun 10:53:21 AM 34.7736 -114.7906 271° West 271 312 20,000  Level Los Angeles Center
Sun 10:54:22 AM 34.7853 -114.9006 277° West 273 314 20,000  Level Los Angeles Center
Sun 10:55:24 AM 34.7886 -114.9922 273° West 273 314 20,000  Level Los Angeles Center
Sun 10:56:25 AM 34.7886 -115.1003 270° West 266 306 20,000  Level Los Angeles Center
Sun 10:57:26 AM 34.7894 -115.1925 271° West 270 311 20,000  Level Los Angeles Center
Sun 10:58:40 AM 34.7936 -115.2839 273° West 271 312 20,000  Level Los Angeles Center
Sun 10:59:42 AM 34.7969 -115.3922 272° West 268 308 20,000  Level Los Angeles Center
Sun 11:00:43 AM 34.7969 -115.4839 270° West 270 311 20,000  Level Los Angeles Center
Sun 11:01:45 AM 34.7953 -115.5764 269° West 267 307 20,000  Level Los Angeles Center
Sun 11:02:46 AM 34.7914 -115.6678 267° West 270 311 20,000  Level Los Angeles Center
Sun 11:03:48 AM 34.7897 -115.7581 269° West 268 308 20,000  Level Los Angeles Center
Sun 11:04:49 AM 34.7911 -115.8483 271° West 268 308 20,000  Level Los Angeles Center
Sun 11:05:51 AM 34.7892 -115.9394 269° West 269 310 20,000  Level Los Angeles Center
Sun 11:06:52 AM 34.7903 -116.0303 271° West 269 310 20,000  Level Los Angeles Center
Sun 11:07:54 AM 34.7925 -116.1389 271° West 269 310 20,000  Level Los Angeles Center
Sun 11:08:55 AM 34.7942 -116.2278 271° West 265 305 20,000  Level Los Angeles Center
Sun 11:09:57 AM 34.7942 -116.3189 270° West 268 308 20,000  Level Los Angeles Center
Sun 11:10:59 AM 34.7950 -116.4092 271° West 269 310 20,000  Level Los Angeles Center
Sun 11:12:00 AM 34.7983 -116.4994 273° West 267 307 20,000  Level Los Angeles Center
Sun 11:13:02 AM 34.7908 -116.5894 264° West 268 308 20,000  Level Los Angeles Center
Sun 11:14:04 AM 34.7844 -116.6814 265° West 272 313 20,000  Level Los Angeles Center
Sun 11:15:05 AM 34.7781 -116.7900 266° West 270 311 20,000  Level Los Angeles Center
Sun 11:16:07 AM 34.7722 -116.8817 266° West 273 314 20,000  Level Los Angeles Center
Sun 11:17:09 AM 34.7686 -116.9719 267° West 269 310 20,000  Level Los Angeles Center
Sun 11:18:23 AM 34.7619 -117.0628 265° West 270 311 20,000  Level Los Angeles Center
Sun 11:19:25 AM 34.7511 -117.1722 263° West 271 312 20,000 -48 Level Los Angeles Center
Sun 11:20:27 AM 34.7397 -117.2642 261° West 274 315 19,900 -488 Descending Los Angeles Center
Sun 11:21:28 AM 34.7206 -117.3586 256° West 285 328 19,000 -1,073 Descending Los Angeles Center
Sun 11:22:30 AM 34.7017 -117.4569 257° West 297 342 17,700 -1,500 Descending Los Angeles Center
Sun 11:23:32 AM 34.6908 -117.5744 264° West 292 336 15,900 -1,500 Descending Los Angeles Center
Sun 11:24:34 AM 34.6781 -117.6717 261° West 294 338 14,600 -1,317 Descending Los Angeles Center
Sun 11:25:35 AM 34.6661 -117.7717 262° West 296 341 13,200 -1,317 Descending Los Angeles Center
Sun 11:26:37 AM 34.6547 -117.8747 262° West 306 352 11,900 -1,161 Descending Los Angeles Center
Sun 11:27:39 AM 34.6450 -117.9525 261° West 295 339 10,800 -1,161 Descending Los Angeles Center
Sun 11:28:41 AM 34.6278 -118.0647 259° West 291 335 9,500 -1,161 Descending Los Angeles Center
Sun 11:29:43 AM 34.5836 -118.1489 238° Southwest 271 312 8,400 -732 Descending Los Angeles Center
Sun 11:30:44 AM 34.5436 -118.2167 234° Southwest 266 306 8,000 -195 Descending Los Angeles Center
Sun 11:31:46 AM 34.4883 -118.2958 230° Southwest 260 299 8,000  Level Los Angeles Center
Sun 11:32:48 AM 34.4431 -118.3622 230° Southwest 258 297 8,000  Level Los Angeles Center
Sun 11:33:50 AM 34.3894 -118.4169 220° Southwest 276 318 8,000  Level Los Angeles Center
Sun 11:34:07 AM 34.3667 -118.4000 148° Southeast 263 303 8,000 -390 Level Southern California TRACON
Sun 11:35:07 AM 34.3000 -118.3667 158° South 256 295 7,500 -679 Descending Southern California TRACON
Sun 11:35:53 AM 34.2583 -118.3519 164° South 257 296 6,800 -833 Descending Los Angeles Center
Sun 11:36:55 AM 34.1933 -118.3147 155° Southeast 258 297 6,000 -387 Descending Los Angeles Center
Sun 11:37:57 AM 34.1350 -118.2811 155° Southeast 238 274 6,000 -726 Level Los Angeles Center
Sun 11:38:59 AM 34.0717 -118.2417 153° Southeast 218 251 4,500 -1,403 Descending Los Angeles Center
Sun 11:40:01 AM 34.0517 -118.1756 110° East 215 247 3,100 -919 Descending Los Angeles Center
Sun 11:41:03 AM 34.0086 -118.1464 151° Southeast 206 237 2,600 -242 Descending Los Angeles Center
Sun 11:42:05 AM 33.9767 -118.1856 225° Southwest 195 224 2,600  Level Los Angeles Center
Sun 11:43:06 AM 33.9697 -118.2344 260° West 188 216 2,600 -387 Level Los Angeles Center
Sun 11:44:09 AM 33.9631 -118.3081 264° West 187 215 1,800 -823 Descending Los Angeles Center
Sun 11:45:10 AM 33.9575 -118.3600 263° West 170 196 900 -829 Descending Los Angeles Center
Sun 11:46:12 AM 33.9511 -118.4139 262° West 146 168 100 -774 Descending Los Angeles Center
Sun 11:48:00 AM 33.9425 -118.4081 228° Southwest  Level Estimated
Sun 11:55:00 AM 33.9425 -118.4081 228° Southwest  Level Estimated

Login

Don't have an account? Register now (free) for customized features, flight alerts, and more!